MDT,Max TemperatureF,Mean TemperatureF,Min TemperatureF,Max Dew PointF,MeanDew PointF,Min DewpointF,Max Humidity, Mean Humidity, Min Humidity, Max Sea Level PressureIn, Mean Sea Level PressureIn, Min Sea Level PressureIn, Max VisibilityMiles, Mean VisibilityMiles, Min VisibilityMiles, Max Wind SpeedMPH, Mean Wind SpeedMPH, Max Gust SpeedMPH,PrecipitationIn, CloudCover, Events, WindDirDegrees
2013-4-1,46,39,32,29,26,21,82,66,49,30.22,30.12,29.89,10,9,6,28,11,33,T,7,,83
2013-4-2,41,36,30,32,29,25,96,81,65,30.22,30.17,30.11,10,7,2,17,10,21,0.00,8,,111
2013-4-3,48,38,27,31,29,24,92,71,49,30.25,30.18,30.12,10,8,2,13,6,15,0.00,6,,118
2013-4-4,73,46,19,30,25,17,96,57,17,30.17,30.07,29.96,10,10,7,25,8,35,0.00,0,,203
2013-4-5,84,65,46,27,20,5,42,24,5,29.94,29.71,29.50,10,10,10,37,12,47,0.00,0,,218
2013-4-6,73,60,46,34,26,16,45,29,12,29.82,29.74,29.60,10,9,3,25,9,33,0.00,2,,16
2013-4-7,79,60,41,31,25,15,57,33,9,29.74,29.61,29.49,10,10,10,28,10,32,0.00,1,,292
2013-4-8,85,60,35,41,26,13,56,32,7,29.56,29.39,29.20,10,9,1,40,17,48,0.00,1,,150
2013-4-9,48,32,15,36,18,4,71,59,46,30.26,29.79,29.36,10,4,1,49,25,60,0.00,7,,358
2013-4-10,39,27,15,9,6,3,59,43,27,30.24,30.13,30.02,10,10,10,28,15,35,0.00,2,,338
2013-4-11,63,38,12,29,18,5,67,45,23,29.99,29.83,29.72,10,10,10,29,9,38,0.00,4,,326
2013-4-12,69,48,27,36,27,21,79,49,18,29.98,29.87,29.73,10,10,8,26,8,31,0.00,3,,230
2013-4-13,83,60,37,38,25,6,92,49,6,29.98,29.63,29.22,10,9,3,28,11,33,0.00,3,,180
2013-4-14,65,51,37,34,22,3,60,37,14,29.70,29.48,29.20,10,10,5,37,11,46,0.00,3,,51
2013-4-15,67,50,32,25,16,7,44,30,15,29.92,29.72,29.55,10,9,5,40,16,51,0.00,2,,103
2013-4-16,49,42,35,31,26,19,70,57,44,30.04,29.93,29.83,10,10,9,24,16,31,0.00,7,,96
2013-4-17,39,32,25,32,28,22,96,80,64,30.09,29.92,29.81,10,5,1,31,15,38,0.01,8,Snow,34
2013-4-18,41,32,23,23,19,13,88,61,33,30.24,30.13,30.05,10,8,1,33,17,48,0.01,4,Snow,333
2013-4-19,61,41,20,21,16,10,91,53,14,30.22,30.06,29.90,10,10,10,22,9,26,0.00,0,,231
2013-4-20,66,45,23,21,19,16,75,45,15,29.94,29.86,29.80,10,10,10,14,6,20,0.00,0,,50
2013-4-21,73,52,30,32,25,19,75,45,15,30.01,29.92,29.84,10,10,10,23,6,31,0.00,1,,179
2013-4-22,73,51,29,40,31,21,82,51,19,30.24,29.92,29.74,10,9,1,46,20,59,0.01,4,Rain,12
2013-4-23,33,28,23,25,22,17,92,78,63,30.33,30.25,30.18,10,6,0,20,9,25,0.05,7,Fog-Snow,7
2013-4-24,62,42,22,29,19,10,88,51,13,30.32,30.20,30.10,10,10,10,16,9,22,0.00,1,,226
2013-4-25,74,53,32,40,26,19,56,37,17,30.14,29.94,29.73,10,9,4,38,21,49,0.00,1,,185
2013-4-26,72,55,38,41,37,33,71,48,25,30.13,29.95,29.79,10,10,10,26,9,31,0.00,2,,120
2013-4-27,81,55,29,33,21,9,89,48,6,30.13,30.01,29.88,10,10,10,20,8,26,0.00,0,,248
2013-4-28,87,63,38,21,13,5,44,25,5,29.91,29.77,29.62,10,10,10,22,8,25,0.00,0,,244
2013-4-29,87,65,43,34,26,15,53,31,8,29.75,29.59,29.42,10,10,10,17,7,22,0.00,0,,282
2013-4-30,83,67,50,41,32,20,51,35,18,29.65,29.53,29.42,10,10,7,28,14,37,0.00,0,,55